Time;durP1;ratioP1;P1;durP2;ratioP2;P2;SDS_P1;SDS_P2;PMS_P1;PMS_P2;Temp;Humidity;BMP_temperature;BMP_pressure;BME280_temperature;BME280_humidity;BME280_pressure;Samples;Min_cycle;Max_cycle;Signal;HPM_P1;HPM_P2
2021/11/10 00:00:15;;;;;;;14.93;8.05;;;;;;;;;;5096493;28;20024;-67
2021/11/10 00:02:41;;;;;;;18.10;9.98;;;;;;;;;;5097034;28;20388;-68
2021/11/10 00:05:08;;;;;;;10.57;6.82;;;;;;;;;;5097069;28;20017;-68
2021/11/10 00:07:35;;;;;;;11.05;6.80;;;;;;;;;;5096253;28;20053;-68
2021/11/10 00:10:01;;;;;;;14.27;7.32;;;;;;;;;;5096714;28;20468;-68
2021/11/10 00:12:27;;;;;;;13.20;6.80;;;;;;;;;;5095376;28;20388;-68
2021/11/10 00:14:54;;;;;;;13.30;7.45;;;;;;;;;;5096173;28;20024;-68
2021/11/10 00:17:20;;;;;;;10.45;6.03;;;;;;;;;;5096498;28;20024;-68
2021/11/10 00:19:46;;;;;;;10.18;5.72;;;;;;;;;;5096412;28;20518;-68
2021/11/10 00:22:12;;;;;;;8.30;4.40;;;;;;;;;;5096176;28;20067;-70
2021/11/10 00:24:39;;;;;;;8.55;4.65;;;;;;;;;;5096461;28;20030;-68
2021/11/10 00:27:05;;;;;;;8.85;4.82;;;;;;;;;;5096259;28;20025;-68
2021/11/10 00:29:31;;;;;;;10.15;5.75;;;;;;;;;;5096049;28;20035;-68
2021/11/10 00:31:57;;;;;;;11.30;6.85;;;;;;;;;;5096276;28;20020;-67
2021/11/10 00:34:24;;;;;;;12.77;6.68;;;;;;;;;;5096391;28;20544;-68
2021/11/10 00:36:50;;;;;;;14.02;6.95;;;;;;;;;;5095771;28;20447;-68
2021/11/10 00:39:16;;;;;;;10.52;6.90;;;;;;;;;;5094346;28;20028;-68
2021/11/10 00:41:42;;;;;;;11.25;6.15;;;;;;;;;;5096052;28;20024;-68
2021/11/10 00:44:08;;;;;;;11.55;6.78;;;;;;;;;;5095620;28;20613;-68
2021/11/10 00:46:34;;;;;;;13.45;6.60;;;;;;;;;;5095890;28;20085;-68
2021/11/10 00:49:01;;;;;;;9.95;5.28;;;;;;;;;;5095579;28;20388;-68
2021/11/10 00:51:30;;;;;;;9.02;5.30;;;;;;;;;;5095955;28;20024;-68
2021/11/10 00:53:57;;;;;;;8.35;4.80;;;;;;;;;;5095804;28;20027;-68
2021/11/10 00:56:23;;;;;;;10.13;6.65;;;;;;;;;;5095763;28;20484;-68
2021/11/10 00:58:49;;;;;;;10.48;6.20;;;;;;;;;;5095795;28;20032;-68
2021/11/10 01:01:15;;;;;;;15.13;7.35;;;;;;;;;;5096004;28;20107;-68
2021/11/10 01:03:41;;;;;;;13.48;7.38;;;;;;;;;;5095293;28;20376;-68
2021/11/10 01:06:08;;;;;;;13.48;6.60;;;;;;;;;;5095265;28;20077;-66
2021/11/10 01:08:34;;;;;;;14.77;7.88;;;;;;;;;;5095539;28;20115;-68
2021/11/10 01:11:01;;;;;;;10.65;6.13;;;;;;;;;;5095223;28;20028;-68
2021/11/10 01:13:27;;;;;;;12.70;6.55;;;;;;;;;;5095797;28;20024;-68
2021/11/10 01:15:54;;;;;;;10.80;5.43;;;;;;;;;;5095383;28;20024;-68
2021/11/10 01:18:20;;;;;;;11.25;6.45;;;;;;;;;;5094965;28;20086;-68
2021/11/10 01:20:46;;;;;;;8.80;4.88;;;;;;;;;;5095464;28;20023;-68
2021/11/10 01:23:13;;;;;;;9.05;4.82;;;;;;;;;;5095733;28;20135;-68
2021/11/10 01:25:39;;;;;;;9.55;4.57;;;;;;;;;;5095095;28;20021;-67
2021/11/10 01:28:09;;;;;;;8.13;4.03;;;;;;;;;;5095213;28;20480;-67
2021/11/10 01:30:35;;;;;;;9.18;4.22;;;;;;;;;;5095227;28;20028;-67
2021/11/10 01:33:02;;;;;;;10.20;5.30;;;;;;;;;;5093542;28;20024;-68
2021/11/10 01:35:28;;;;;;;11.23;5.13;;;;;;;;;;5095131;28;20480;-68
2021/11/10 01:37:54;;;;;;;7.53;4.68;;;;;;;;;;5094995;28;20563;-68
2021/11/10 01:40:21;;;;;;;8.98;5.18;;;;;;;;;;5094683;28;20030;-68
2021/11/10 01:42:47;;;;;;;8.18;4.82;;;;;;;;;;5094952;28;20024;-67
2021/11/10 01:45:15;;;;;;;10.32;6.00;;;;;;;;;;5093153;28;20030;-67
2021/11/10 01:47:42;;;;;;;8.85;5.05;;;;;;;;;;5093442;28;20404;-68
2021/11/10 01:50:10;;;;;;;10.20;4.50;;;;;;;;;;5094464;28;20012;-68
2021/11/10 01:52:36;;;;;;;7.72;4.32;;;;;;;;;;5092612;28;20032;-68
2021/11/10 01:55:03;;;;;;;9.57;4.93;;;;;;;;;;5094614;28;20028;-68
2021/11/10 01:57:30;;;;;;;9.75;5.63;;;;;;;;;;5094556;28;20024;-66
2021/11/10 02:00:07;;;;;;;9.90;5.68;;;;;;;;;;5092922;28;20031;-68
2021/11/10 02:02:34;;;;;;;10.88;6.00;;;;;;;;;;5094730;28;20107;-68
2021/11/10 02:05:01;;;;;;;8.48;4.82;;;;;;;;;;5094443;28;20019;-68
2021/11/10 02:07:27;;;;;;;11.55;5.03;;;;;;;;;;5093776;28;20385;-68
2021/11/10 02:09:54;;;;;;;8.52;4.78;;;;;;;;;;5094370;28;20024;-68
2021/11/10 02:12:20;;;;;;;8.18;4.20;;;;;;;;;;5094268;28;20020;-68
2021/11/10 02:14:46;;;;;;;7.85;4.45;;;;;;;;;;5093855;28;20020;-68
2021/11/10 02:17:17;;;;;;;10.50;6.38;;;;;;;;;;5094486;28;20488;-68
2021/11/10 02:19:44;;;;;;;12.70;8.00;;;;;;;;;;5094336;28;20027;-68
2021/11/10 02:22:12;;;;;;;9.25;5.50;;;;;;;;;;5093803;28;20099;-68
2021/11/10 02:24:39;;;;;;;8.02;5.03;;;;;;;;;;5094120;28;20484;-68
2021/11/10 02:27:14;;;;;;;7.63;4.35;;;;;;;;;;5092765;28;20085;-68
2021/11/10 02:29:41;;;;;;;9.98;5.32;;;;;;;;;;5094304;28;20028;-68
2021/11/10 02:32:11;;;;;;;7.95;4.50;;;;;;;;;;5093993;28;20024;-68
2021/11/10 02:34:38;;;;;;;8.20;4.70;;;;;;;;;;5093745;28;20024;-68
2021/11/10 02:37:05;;;;;;;12.02;5.43;;;;;;;;;;5092673;28;20388;-68
2021/11/10 02:39:31;;;;;;;11.57;5.43;;;;;;;;;;5094011;28;20024;-68
2021/11/10 02:41:58;;;;;;;12.38;5.95;;;;;;;;;;5093512;28;20031;-68
2021/11/10 02:44:24;;;;;;;11.13;6.68;;;;;;;;;;5092562;28;20027;-68
2021/11/10 02:46:51;;;;;;;12.93;6.78;;;;;;;;;;5093685;28;20533;-68
2021/11/10 02:49:18;;;;;;;10.25;5.90;;;;;;;;;;5093437;28;20024;-68
2021/11/10 02:51:53;;;;;;;10.27;5.75;;;;;;;;;;5093713;28;20024;-68
2021/11/10 02:54:19;;;;;;;10.20;5.90;;;;;;;;;;5093706;28;20035;-68
2021/11/10 02:56:46;;;;;;;14.85;6.03;;;;;;;;;;5093340;28;20468;-68
2021/11/10 02:59:13;;;;;;;11.30;5.50;;;;;;;;;;5092380;28;20438;-67
2021/11/10 03:01:39;;;;;;;9.05;4.90;;;;;;;;;;5093509;28;20016;-67
2021/11/10 03:04:06;;;;;;;9.85;5.57;;;;;;;;;;5093216;28;20044;-67
2021/11/10 03:06:32;;;;;;;9.98;5.10;;;;;;;;;;5093242;28;20541;-67
2021/11/10 03:08:58;;;;;;;10.52;5.82;;;;;;;;;;5093472;28;20016;-68
2021/11/10 03:11:30;;;;;;;10.38;5.53;;;;;;;;;;5093084;28;20020;-67
2021/11/10 03:13:56;;;;;;;21.20;8.02;;;;;;;;;;5093573;28;20114;-68
2021/11/10 03:16:22;;;;;;;14.93;7.68;;;;;;;;;;5093448;28;20017;-67
2021/11/10 03:18:48;;;;;;;14.88;7.57;;;;;;;;;;5093024;28;20044;-67
2021/11/10 03:21:14;;;;;;;15.90;6.65;;;;;;;;;;5093446;28;20510;-67
2021/11/10 03:23:40;;;;;;;16.10;7.70;;;;;;;;;;5092903;28;20032;-67
2021/11/10 03:26:07;;;;;;;10.85;5.85;;;;;;;;;;5091994;28;20020;-67
2021/11/10 03:28:33;;;;;;;13.10;6.40;;;;;;;;;;5093309;28;20387;-67
2021/11/10 03:30:59;;;;;;;11.90;6.07;;;;;;;;;;5093074;28;20024;-67
2021/11/10 03:33:25;;;;;;;11.63;6.30;;;;;;;;;;5093453;28;20020;-67
2021/11/10 03:35:51;;;;;;;10.40;5.95;;;;;;;;;;5093250;28;20024;-67
2021/11/10 03:38:18;;;;;;;9.90;5.03;;;;;;;;;;5093041;28;20024;-67
2021/11/10 03:40:44;;;;;;;8.40;5.00;;;;;;;;;;5092036;28;20024;-67
2021/11/10 03:43:10;;;;;;;9.18;5.72;;;;;;;;;;5093125;28;20016;-67
2021/11/10 03:45:36;;;;;;;10.55;5.70;;;;;;;;;;5092706;28;20028;-67
2021/11/10 03:48:02;;;;;;;9.23;5.28;;;;;;;;;;5093279;28;20093;-68
2021/11/10 03:50:29;;;;;;;10.85;5.57;;;;;;;;;;5093000;28;20095;-67
2021/11/10 03:52:55;;;;;;;9.75;5.45;;;;;;;;;;5092764;28;20031;-67
2021/11/10 03:55:21;;;;;;;9.10;4.93;;;;;;;;;;5092883;28;20022;-68
2021/11/10 03:57:47;;;;;;;11.20;5.97;;;;;;;;;;5092991;28;20464;-67
2021/11/10 04:00:13;;;;;;;10.48;5.93;;;;;;;;;;5092547;28;20076;-67
2021/11/10 04:02:40;;;;;;;13.07;6.53;;;;;;;;;;5092873;28;20500;-67
2021/11/10 04:05:06;;;;;;;10.40;6.10;;;;;;;;;;5092917;28;20042;-67
2021/11/10 04:07:32;;;;;;;9.80;5.88;;;;;;;;;;5092217;28;20048;-67
2021/11/10 04:09:58;;;;;;;15.40;6.18;;;;;;;;;;5092792;28;20472;-67
2021/11/10 04:12:24;;;;;;;12.68;6.43;;;;;;;;;;5092857;28;20046;-67
2021/11/10 04:14:51;;;;;;;11.90;6.00;;;;;;;;;;5094279;28;20020;-67
2021/11/10 04:17:17;;;;;;;10.95;6.13;;;;;;;;;;5096453;28;20534;-67
2021/11/10 04:19:43;;;;;;;8.55;5.45;;;;;;;;;;5096709;28;20411;-67
2021/11/10 04:22:09;;;;;;;9.63;5.78;;;;;;;;;;5096125;28;20032;-67
2021/11/10 04:24:35;;;;;;;12.88;6.05;;;;;;;;;;5096366;28;20096;-67
2021/11/10 04:27:02;;;;;;;10.52;5.70;;;;;;;;;;5095806;28;20059;-68
2021/11/10 04:29:29;;;;;;;12.02;5.78;;;;;;;;;;5096494;28;20099;-67
2021/11/10 04:31:55;;;;;;;11.10;6.13;;;;;;;;;;5096180;28;20069;-67
2021/11/10 04:34:21;;;;;;;11.35;5.95;;;;;;;;;;5095763;28;20107;-67
2021/11/10 04:36:48;;;;;;;11.13;5.78;;;;;;;;;;5096281;28;20024;-67
2021/11/10 04:39:14;;;;;;;10.98;6.05;;;;;;;;;;5096035;28;20031;-67
2021/11/10 04:41:40;;;;;;;10.98;5.75;;;;;;;;;;5094394;28;20032;-67
2021/11/10 04:44:06;;;;;;;11.23;6.22;;;;;;;;;;5096236;28;20452;-68
2021/11/10 04:46:34;;;;;;;11.23;5.88;;;;;;;;;;5095688;28;20036;-67
2021/11/10 04:49:01;;;;;;;9.18;5.10;;;;;;;;;;5095522;28;20107;-67
2021/11/10 04:51:27;;;;;;;9.70;5.95;;;;;;;;;;5095838;28;20032;-67
2021/11/10 04:53:56;;;;;;;13.65;7.93;;;;;;;;;;5095774;28;20114;-67
2021/11/10 04:56:22;;;;;;;12.65;7.47;;;;;;;;;;5095333;28;20023;-67
2021/11/10 04:58:48;;;;;;;12.63;7.55;;;;;;;;;;5095741;28;20028;-67
2021/11/10 05:01:38;;;;;;;11.00;7.05;;;;;;;;;;5095619;28;20023;-68
2021/11/10 05:04:01;;;;;;;13.07;7.28;;;;;;;;;;5094913;28;20040;-68
2021/11/10 05:06:29;;;;;;;14.32;7.20;;;;;;;;;;5095383;28;20055;-67
2021/11/10 05:08:55;;;;;;;14.82;7.43;;;;;;;;;;5095552;28;20069;-67
2021/11/10 05:11:21;;;;;;;10.10;6.00;;;;;;;;;;5093606;28;20051;-68
2021/11/10 05:13:48;;;;;;;12.70;7.32;;;;;;;;;;5095586;28;20024;-67
2021/11/10 05:16:14;;;;;;;12.32;7.07;;;;;;;;;;5095556;28;20426;-68
2021/11/10 05:18:40;;;;;;;10.50;6.90;;;;;;;;;;5095358;28;20059;-68
2021/11/10 05:21:07;;;;;;;14.60;7.55;;;;;;;;;;5095333;28;20024;-67
2021/11/10 05:23:33;;;;;;;12.55;7.05;;;;;;;;;;5095207;28;20108;-68
2021/11/10 05:25:59;;;;;;;10.10;6.35;;;;;;;;;;5095312;28;20447;-68
2021/11/10 05:28:25;;;;;;;11.30;6.47;;;;;;;;;;5095020;28;20093;-68
2021/11/10 05:30:52;;;;;;;12.10;7.30;;;;;;;;;;5094865;28;20337;-68
2021/11/10 05:33:19;;;;;;;12.63;6.97;;;;;;;;;;5094998;28;20031;-68
2021/11/10 05:35:45;;;;;;;16.38;8.27;;;;;;;;;;5094989;28;20016;-67
2021/11/10 05:38:11;;;;;;;10.13;6.50;;;;;;;;;;5094731;28;20039;-67
2021/11/10 05:40:37;;;;;;;14.48;8.15;;;;;;;;;;5094938;28;20028;-69
2021/11/10 05:43:05;;;;;;;14.45;8.20;;;;;;;;;;5094850;28;20020;-68
2021/11/10 05:45:31;;;;;;;15.55;8.38;;;;;;;;;;5094421;28;20069;-67
2021/11/10 05:47:58;;;;;;;13.25;8.40;;;;;;;;;;5094730;28;20066;-68
2021/11/10 05:50:24;;;;;;;13.30;7.13;;;;;;;;;;5094936;28;20026;-67
2021/11/10 05:52:50;;;;;;;9.35;5.90;;;;;;;;;;5094264;28;20502;-67
2021/11/10 05:55:24;;;;;;;10.80;5.78;;;;;;;;;;5095325;28;20030;-67
2021/11/10 05:57:50;;;;;;;9.93;5.50;;;;;;;;;;5094750;28;20429;-67
2021/11/10 06:00:17;;;;;;;13.25;6.13;;;;;;;;;;5094130;28;20026;-67
2021/11/10 06:02:43;;;;;;;11.90;7.32;;;;;;;;;;5093760;28;20456;-67
2021/11/10 06:05:11;;;;;;;13.98;9.02;;;;;;;;;;5094483;28;20107;-67
2021/11/10 06:07:37;;;;;;;11.07;6.05;;;;;;;;;;5093856;28;20052;-67
2021/11/10 06:10:04;;;;;;;13.60;7.30;;;;;;;;;;5094233;28;20016;-68
2021/11/10 06:12:30;;;;;;;14.73;7.78;;;;;;;;;;5093939;28;20031;-68
2021/11/10 06:14:57;;;;;;;18.42;9.43;;;;;;;;;;5094218;28;20376;-70
2021/11/10 06:17:23;;;;;;;19.73;9.88;;;;;;;;;;5094309;28;20345;-69
2021/11/10 06:19:52;;;;;;;20.27;10.55;;;;;;;;;;5094120;28;20024;-69
2021/11/10 06:22:18;;;;;;;16.05;8.80;;;;;;;;;;5094224;28;20472;-69
2021/11/10 06:24:45;;;;;;;18.90;10.18;;;;;;;;;;5094510;28;20384;-67
2021/11/10 06:27:11;;;;;;;19.33;10.25;;;;;;;;;;5093793;28;20447;-69
2021/11/10 06:29:37;;;;;;;18.10;9.48;;;;;;;;;;5094568;28;20028;-68
2021/11/10 06:32:04;;;;;;;23.45;13.35;;;;;;;;;;5094020;28;20107;-68
2021/11/10 06:34:30;;;;;;;19.02;9.85;;;;;;;;;;5093362;28;20032;-68
2021/11/10 06:36:57;;;;;;;22.02;11.30;;;;;;;;;;5092008;28;20048;-68
2021/11/10 06:39:23;;;;;;;18.25;9.93;;;;;;;;;;5094167;28;20028;-68
2021/11/10 06:41:50;;;;;;;20.75;11.52;;;;;;;;;;5093630;28;20024;-68
2021/11/10 06:44:16;;;;;;;19.70;10.10;;;;;;;;;;5093745;28;20059;-69
2021/11/10 06:46:42;;;;;;;16.73;9.80;;;;;;;;;;5093770;28;20268;-70
2021/11/10 06:49:09;;;;;;;15.50;9.55;;;;;;;;;;5093421;28;20070;-69
2021/11/10 06:51:35;;;;;;;16.23;10.07;;;;;;;;;;5092999;28;20021;-70
2021/11/10 06:54:01;;;;;;;25.63;12.75;;;;;;;;;;5093367;28;20024;-69
2021/11/10 06:56:27;;;;;;;18.67;11.45;;;;;;;;;;5093585;28;20020;-69
2021/11/10 06:58:54;;;;;;;17.45;11.15;;;;;;;;;;5093892;28;20024;-69
2021/11/10 07:01:20;;;;;;;20.33;10.60;;;;;;;;;;5093397;28;20039;-69
2021/11/10 07:10:00;;;;;;;56.47;30.77;;;;;;;;;;5089699;28;20389;-69
2021/11/10 07:12:27;;;;;;;31.15;18.38;;;;;;;;;;5093473;28;20049;-70
2021/11/10 07:14:53;;;;;;;25.17;14.27;;;;;;;;;;5093809;28;20020;-69
2021/11/10 07:17:20;;;;;;;23.73;12.63;;;;;;;;;;5093133;28;20511;-69
2021/11/10 07:19:47;;;;;;;29.23;15.23;;;;;;;;;;5093487;28;20106;-68
2021/11/10 07:22:13;;;;;;;29.85;16.27;;;;;;;;;;5093357;28;20020;-69
2021/11/10 07:24:40;;;;;;;27.20;15.60;;;;;;;;;;5093473;28;20028;-69
2021/11/10 07:27:06;;;;;;;30.20;17.92;;;;;;;;;;5093185;28;20032;-69
2021/11/10 07:29:37;;;;;;;32.10;16.20;;;;;;;;;;5093041;28;20024;-69
2021/11/10 07:32:05;;;;;;;33.33;19.35;;;;;;;;;;5093751;28;20024;-69
2021/11/10 07:34:31;;;;;;;27.92;15.75;;;;;;;;;;5093202;28;20376;-69
2021/11/10 07:36:57;;;;;;;27.50;15.40;;;;;;;;;;5092907;28;20023;-68
2021/11/10 07:39:25;;;;;;;41.95;24.25;;;;;;;;;;5093566;28;20406;-69
2021/11/10 07:41:51;;;;;;;53.78;31.70;;;;;;;;;;5092929;28;20021;-69
2021/11/10 07:44:18;;;;;;;66.78;37.20;;;;;;;;;;5093133;28;20028;-69
2021/11/10 07:46:53;;;;;;;62.47;34.38;;;;;;;;;;5093063;28;20046;-69
2021/11/10 07:49:20;;;;;;;57.33;29.38;;;;;;;;;;5094785;28;20337;-70
2021/11/10 07:51:46;;;;;;;49.38;25.40;;;;;;;;;;5097703;28;20038;-69
2021/11/10 07:54:13;;;;;;;44.88;22.27;;;;;;;;;;5095784;28;20032;-69
2021/11/10 07:56:39;;;;;;;37.63;19.52;;;;;;;;;;5096711;28;20017;-69
2021/11/10 07:59:05;;;;;;;35.83;19.10;;;;;;;;;;5096523;28;20032;-69
2021/11/10 08:01:32;;;;;;;50.15;27.08;;;;;;;;;;5096594;28;20024;-69
2021/11/10 08:04:04;;;;;;;65.88;33.88;;;;;;;;;;5096427;28;20031;-68
2021/11/10 08:06:31;;;;;;;38.25;22.40;;;;;;;;;;5095423;28;20020;-69
2021/11/10 08:08:57;;;;;;;37.65;19.08;;;;;;;;;;5096903;28;20445;-69
2021/11/10 08:11:24;;;;;;;37.67;20.60;;;;;;;;;;5096745;28;20023;-70
2021/11/10 08:13:50;;;;;;;41.10;21.80;;;;;;;;;;5096498;28;20423;-69
2021/11/10 08:16:22;;;;;;;42.53;21.65;;;;;;;;;;5096701;28;20024;-68
2021/11/10 08:18:48;;;;;;;36.10;18.02;;;;;;;;;;5095354;28;20093;-68
2021/11/10 08:21:16;;;;;;;33.75;18.83;;;;;;;;;;5095957;28;20506;-70
2021/11/10 08:23:42;;;;;;;33.90;19.92;;;;;;;;;;5095609;28;20024;-68
2021/11/10 08:26:08;;;;;;;35.20;16.85;;;;;;;;;;5095950;28;20020;-69
2021/11/10 08:28:35;;;;;;;29.55;13.57;;;;;;;;;;5096419;28;20067;-68
2021/11/10 08:31:01;;;;;;;36.55;20.05;;;;;;;;;;5096238;28;20103;-68
2021/11/10 08:33:28;;;;;;;28.25;14.32;;;;;;;;;;5096052;28;20111;-69
2021/11/10 08:35:54;;;;;;;19.45;12.20;;;;;;;;;;5095399;28;20031;-69
2021/11/10 08:38:21;;;;;;;23.40;13.27;;;;;;;;;;5095829;28;20028;-69
2021/11/10 08:40:49;;;;;;;25.73;12.40;;;;;;;;;;5094688;28;20031;-68
2021/11/10 08:43:15;;;;;;;30.25;15.25;;;;;;;;;;5095901;28;20012;-69
2021/11/10 08:45:44;;;;;;;23.35;12.73;;;;;;;;;;5095742;28;20028;-69
2021/11/10 08:48:11;;;;;;;29.65;16.83;;;;;;;;;;5094698;28;20032;-69
2021/11/10 08:50:41;;;;;;;21.50;11.73;;;;;;;;;;5095824;28;20032;-69
2021/11/10 08:53:07;;;;;;;23.10;13.10;;;;;;;;;;5094702;28;20081;-68
2021/11/10 08:55:34;;;;;;;20.23;11.27;;;;;;;;;;5095389;28;20099;-68
2021/11/10 08:58:00;;;;;;;27.85;13.60;;;;;;;;;;5095409;28;20078;-69
2021/11/10 09:00:28;;;;;;;20.73;10.30;;;;;;;;;;5094370;28;20333;-69
2021/11/10 09:02:55;;;;;;;18.92;10.98;;;;;;;;;;5095955;28;20020;-69
2021/11/10 09:05:21;;;;;;;19.65;9.20;;;;;;;;;;5093998;28;20027;-69
2021/11/10 09:07:47;;;;;;;17.15;8.90;;;;;;;;;;5095277;28;20032;-68
2021/11/10 09:10:15;;;;;;;15.02;9.13;;;;;;;;;;5095065;28;20403;-69
2021/11/10 09:12:42;;;;;;;24.10;9.32;;;;;;;;;;5095147;28;20031;-69
2021/11/10 09:15:11;;;;;;;14.35;8.38;;;;;;;;;;5095355;28;20383;-67
2021/11/10 09:17:38;;;;;;;17.27;9.27;;;;;;;;;;5095083;28;20028;-69
2021/11/10 09:20:09;;;;;;;18.60;9.75;;;;;;;;;;5095050;28;20020;-68
2021/11/10 09:22:35;;;;;;;18.50;10.50;;;;;;;;;;5095399;28;20028;-68
2021/11/10 09:25:01;;;;;;;17.42;9.95;;;;;;;;;;5095545;28;20379;-68
2021/11/10 09:27:28;;;;;;;15.70;8.75;;;;;;;;;;5094951;28;20042;-68
2021/11/10 09:29:54;;;;;;;18.38;9.75;;;;;;;;;;5095211;28;20529;-67
2021/11/10 09:32:20;;;;;;;17.50;11.40;;;;;;;;;;5095526;28;20028;-67
2021/11/10 09:34:47;;;;;;;17.92;10.10;;;;;;;;;;5095374;28;20024;-68
2021/11/10 09:37:13;;;;;;;20.73;10.15;;;;;;;;;;5094821;28;20028;-69
2021/11/10 09:39:39;;;;;;;22.10;11.57;;;;;;;;;;5095265;28;20030;-68
2021/11/10 09:42:06;;;;;;;23.70;12.07;;;;;;;;;;5094936;28;20445;-69
2021/11/10 09:44:33;;;;;;;18.85;10.40;;;;;;;;;;5076559;28;20031;-69
2021/11/10 09:47:00;;;;;;;23.15;11.45;;;;;;;;;;5094183;28;20115;-69
2021/11/10 09:49:27;;;;;;;24.05;12.57;;;;;;;;;;5093941;28;20020;-69
2021/11/10 09:51:53;;;;;;;22.27;13.13;;;;;;;;;;5094241;28;20024;-69
2021/11/10 09:54:20;;;;;;;25.65;11.90;;;;;;;;;;5092253;28;20024;-71
2021/11/10 09:56:47;;;;;;;23.40;11.00;;;;;;;;;;5092496;28;20376;-70
2021/11/10 09:59:13;;;;;;;19.10;11.30;;;;;;;;;;5093719;28;20024;-70
2021/11/10 10:01:40;;;;;;;19.48;10.50;;;;;;;;;;5093922;28;20034;-70
2021/11/10 10:04:08;;;;;;;28.73;14.82;;;;;;;;;;5091350;28;20074;-70
2021/11/10 10:06:35;;;;;;;29.55;16.08;;;;;;;;;;5093465;28;20471;-71
2021/11/10 10:09:01;;;;;;;36.55;17.23;;;;;;;;;;5093186;28;20048;-71
2021/11/10 10:11:29;;;;;;;36.20;18.40;;;;;;;;;;5092782;28;20032;-71
2021/11/10 10:13:55;;;;;;;29.48;14.35;;;;;;;;;;5094020;28;20055;-70
2021/11/10 10:16:22;;;;;;;29.88;15.60;;;;;;;;;;5094128;28;20023;-70
2021/11/10 10:18:49;;;;;;;34.90;17.05;;;;;;;;;;5092406;28;20113;-69
2021/11/10 10:22:04;;;;;;;38.35;17.75;;;;;;;;;;5067936;28;20461;-67
2021/11/10 10:24:44;;;;;;;36.83;16.50;;;;;;;;;;5066916;28;20109;-67
2021/11/10 10:27:21;;;;;;;32.95;18.63;;;;;;;;;;5067962;28;20029;-69
2021/11/10 10:29:48;;;;;;;36.17;19.60;;;;;;;;;;5068719;28;20028;-69
2021/11/10 10:36:20;;;;;;;26.73;16.58;;;;;;;;;;5111094;27;20427;-70
2021/11/10 10:38:49;;;;;;;36.47;18.27;;;;;;;;;;5110739;28;20411;-69
2021/11/10 10:41:56;;;;;;;34.05;18.13;;;;;;;;;;5110314;27;20416;-70
2021/11/10 10:44:23;;;;;;;36.53;16.48;;;;;;;;;;5109665;28;20084;-70
2021/11/10 10:47:09;;;;;;;27.90;15.75;;;;;;;;;;5089504;27;20971;-70
2021/11/10 10:49:43;;;;;;;32.17;17.20;;;;;;;;;;5088461;28;20368;-70
2021/11/10 10:52:18;;;;;;;27.80;14.77;;;;;;;;;;5088287;28;20107;-71
2021/11/10 10:55:04;;;;;;;27.95;15.55;;;;;;;;;;5108106;27;20450;-69
2021/11/10 10:58:36;;;;;;;30.65;15.60;;;;;;;;;;5116511;27;20470;-69
2021/11/10 11:02:16;;;;;;;30.63;14.85;;;;;;;;;;5110793;27;20396;-69
2021/11/10 11:05:31;;;;;;;31.25;15.32;;;;;;;;;;5130657;27;20323;-68
2021/11/10 11:07:57;;;;;;;29.60;13.45;;;;;;;;;;5090109;28;20482;-69
2021/11/10 11:10:26;;;;;;;25.10;10.88;;;;;;;;;;5090531;28;20028;-69
2021/11/10 11:12:54;;;;;;;26.85;11.18;;;;;;;;;;5090489;28;20103;-69
2021/11/10 11:15:34;;;;;;;18.60;10.98;;;;;;;;;;5071791;28;20116;-69
2021/11/10 11:18:00;;;;;;;33.58;16.27;;;;;;;;;;5071833;28;20040;-68
2021/11/10 11:20:30;;;;;;;19.20;8.50;;;;;;;;;;5070728;28;20024;-71
2021/11/10 11:22:58;;;;;;;21.73;12.27;;;;;;;;;;5087861;28;20073;-69
2021/11/10 11:26:06;;;;;;;10.18;4.68;;;;;;;;;;5109110;27;20415;-70
2021/11/10 11:30:10;;;;;;;13.75;4.90;;;;;;;;;;5108454;27;20450;-71
2021/11/10 11:32:44;;;;;;;9.52;5.43;;;;;;;;;;5109635;28;20053;-70
2021/11/10 11:37:09;;;;;;;8.95;3.97;;;;;;;;;;5109359;27;20388;-70
2021/11/10 11:41:25;;;;;;;10.05;4.60;;;;;;;;;;5130256;27;20123;-71
2021/11/10 11:43:51;;;;;;;10.52;5.68;;;;;;;;;;5110367;28;20055;-70
2021/11/10 11:46:17;;;;;;;10.07;4.82;;;;;;;;;;5109687;28;20435;-71
2021/11/10 11:48:43;;;;;;;13.70;6.32;;;;;;;;;;5111334;28;20058;-71
2021/11/10 11:51:10;;;;;;;9.40;4.90;;;;;;;;;;5097748;28;20020;-70
2021/11/10 11:53:39;;;;;;;42.95;17.35;;;;;;;;;;5110566;28;20016;-71
2021/11/10 11:57:47;;;;;;;23.67;14.30;;;;;;;;;;5101184;27;20377;-70
2021/11/10 12:00:13;;;;;;;13.65;8.85;;;;;;;;;;5081800;28;20036;-70
2021/11/10 12:02:45;;;;;;;8.32;3.80;;;;;;;;;;5090621;28;20471;-69
2021/11/10 12:06:06;;;;;;;6.18;3.78;;;;;;;;;;5110772;27;20450;-70
2021/11/10 12:08:44;;;;;;;13.95;5.35;;;;;;;;;;5111214;28;20034;-70
2021/11/10 12:11:16;;;;;;;13.38;5.45;;;;;;;;;;5110556;28;20501;-70
2021/11/10 12:16:21;;;;;;;10.13;5.88;;;;;;;;;;5110924;27;20438;-71
2021/11/10 12:18:49;;;;;;;7.93;4.47;;;;;;;;;;5110634;28;20089;-71
2021/11/10 12:26:11;;;;;;;7.93;4.43;;;;;;;;;;5110777;27;20400;-71
2021/11/10 12:30:26;;;;;;;25.73;10.52;;;;;;;;;;5111253;27;20446;-68
2021/11/10 12:34:49;;;;;;;17.08;7.22;;;;;;;;;;5101608;27;1518727;-70
2021/11/10 12:37:24;;;;;;;9.43;4.72;;;;;;;;;;5130881;28;20494;-70
2021/11/10 12:40:09;;;;;;;16.20;7.70;;;;;;;;;;5125955;28;20463;-69
2021/11/10 12:42:53;;;;;;;12.40;5.88;;;;;;;;;;5129131;28;20023;-70
2021/11/10 12:45:23;;;;;;;12.93;5.32;;;;;;;;;;5131496;27;20051;-70
2021/11/10 12:49:22;;;;;;;11.63;7.20;;;;;;;;;;5111047;27;20480;-71
2021/11/10 12:54:31;;;;;;;8.00;3.85;;;;;;;;;;5111179;27;20396;-69
2021/11/10 12:59:22;;;;;;;31.67;13.88;;;;;;;;;;5111405;27;20392;-71
2021/11/10 13:01:49;;;;;;;24.95;13.02;;;;;;;;;;5110847;28;20065;-70
2021/11/10 13:04:21;;;;;;;51.88;23.10;;;;;;;;;;5111380;28;20081;-71
2021/11/10 13:15:54;;;;;;;16.85;9.13;;;;;;;;;;5110956;27;20404;-71
2021/11/10 13:18:22;;;;;;;15.10;7.68;;;;;;;;;;5111113;28;20024;-68
2021/11/10 13:20:50;;;;;;;16.70;8.60;;;;;;;;;;5109828;28;20028;-69
2021/11/10 13:23:20;;;;;;;24.77;11.38;;;;;;;;;;5106007;28;20024;-68
2021/11/10 13:26:11;;;;;;;13.13;6.82;;;;;;;;;;5087974;27;20398;-70
2021/11/10 13:28:37;;;;;;;15.10;8.73;;;;;;;;;;5089856;28;20103;-70
2021/11/10 13:31:04;;;;;;;21.77;11.57;;;;;;;;;;5090031;28;20468;-69
2021/11/10 13:34:34;;;;;;;14.63;8.00;;;;;;;;;;5070089;28;20975;-68
2021/11/10 13:39:05;;;;;;;14.95;9.13;;;;;;;;;;5110955;27;20450;-69
2021/11/10 13:41:32;;;;;;;12.43;7.03;;;;;;;;;;5110768;28;20478;-68
2021/11/10 13:44:01;;;;;;;12.43;6.28;;;;;;;;;;5126355;28;20074;-68
2021/11/10 13:46:30;;;;;;;16.92;7.25;;;;;;;;;;5109474;28;20032;-68
2021/11/10 13:49:01;;;;;;;11.45;5.85;;;;;;;;;;5110688;28;20023;-68
2021/11/10 13:51:27;;;;;;;11.90;5.03;;;;;;;;;;5110168;28;20020;-68
2021/11/10 13:56:03;;;;;;;9.85;4.93;;;;;;;;;;5110835;27;20393;-68
2021/11/10 13:58:31;;;;;;;7.82;4.63;;;;;;;;;;5110693;28;20028;-67
2021/11/10 14:01:03;;;;;;;11.48;5.97;;;;;;;;;;5110582;28;20024;-69
2021/11/10 14:03:30;;;;;;;8.85;5.70;;;;;;;;;;5109778;28;20367;-69
2021/11/10 14:07:53;;;;;;;13.05;8.00;;;;;;;;;;5091317;27;20432;-68
2021/11/10 14:10:20;;;;;;;12.82;8.85;;;;;;;;;;5090949;28;20576;-69
2021/11/10 14:12:53;;;;;;;11.80;7.00;;;;;;;;;;5090453;28;20020;-69
2021/11/10 14:17:40;;;;;;;13.23;7.18;;;;;;;;;;5111062;27;20466;-69
2021/11/10 14:20:11;;;;;;;13.98;6.53;;;;;;;;;;5109128;28;20119;-68
2021/11/10 14:22:38;;;;;;;16.25;9.63;;;;;;;;;;5110983;28;20084;-68
2021/11/10 14:26:12;;;;;;;19.77;10.52;;;;;;;;;;5070256;28;20418;-70
2021/11/10 14:28:40;;;;;;;15.73;9.70;;;;;;;;;;5067925;28;20041;-69
2021/11/10 14:33:21;;;;;;;17.15;8.75;;;;;;;;;;5069111;28;20796;-70
2021/11/10 14:35:50;;;;;;;16.45;9.52;;;;;;;;;;5070286;28;20033;-72
2021/11/10 14:38:20;;;;;;;21.30;9.82;;;;;;;;;;5070347;28;20427;-70
2021/11/10 14:40:48;;;;;;;15.77;9.15;;;;;;;;;;5070289;28;20388;-71
2021/11/10 14:43:41;;;;;;;18.77;10.38;;;;;;;;;;5070344;28;20017;-70
2021/11/10 14:46:16;;;;;;;23.70;10.73;;;;;;;;;;5070184;28;20040;-69
2021/11/10 14:48:44;;;;;;;30.23;14.48;;;;;;;;;;5070854;28;20530;-71
2021/11/10 14:51:11;;;;;;;27.45;13.65;;;;;;;;;;5069422;28;20024;-70
2021/11/10 14:53:39;;;;;;;27.95;14.63;;;;;;;;;;5069891;28;20378;-72
2021/11/10 14:56:13;;;;;;;17.33;9.45;;;;;;;;;;5069853;28;20079;-70
2021/11/10 14:58:40;;;;;;;20.48;10.07;;;;;;;;;;5070016;28;20032;-70
2021/11/10 15:01:10;;;;;;;20.15;11.63;;;;;;;;;;5069399;28;20021;-69
2021/11/10 15:03:43;;;;;;;19.90;10.52;;;;;;;;;;5069928;28;20017;-70
2021/11/10 15:06:24;;;;;;;24.25;11.95;;;;;;;;;;5068534;28;20025;-69
2021/11/10 15:08:58;;;;;;;13.80;9.05;;;;;;;;;;5069467;28;20028;-70
2021/11/10 15:11:24;;;;;;;;;;;;;;;;;;5070176;28;20442;-70
2021/11/10 15:13:50;;;;;;;23.13;12.50;;;;;;;;;;5069473;28;19931;-71
2021/11/10 15:16:17;;;;;;;21.63;10.82;;;;;;;;;;5067561;28;20433;-70
2021/11/10 15:18:43;;;;;;;18.77;9.70;;;;;;;;;;5069717;28;20106;-71
2021/11/10 15:21:12;;;;;;;18.45;9.35;;;;;;;;;;5069003;28;20039;-70
2021/11/10 15:23:40;;;;;;;18.27;8.70;;;;;;;;;;5069423;28;20088;-70
2021/11/10 15:26:06;;;;;;;16.08;8.25;;;;;;;;;;5069534;28;20370;-71
2021/11/10 15:28:33;;;;;;;12.75;6.90;;;;;;;;;;5069028;28;20120;-71
2021/11/10 15:31:00;;;;;;;14.95;8.25;;;;;;;;;;5067612;28;20526;-68
2021/11/10 15:33:30;;;;;;;15.00;8.63;;;;;;;;;;5069643;28;20480;-70